Tehachapi, CA

9:32 PM PDT on August 31, 2015 (GMT -0700)
MesoWest | | Change Station
CLOSE
Current Station
Personal Weather Station
Location: Tehachapi, CA
Elevation: 3997 ft
Nearby Weather Stations

Elev 3997 ft 35.12 °N, 118.39 °W | Updated 1 hour ago

Clear
Clear
68.0 °F
Feels Like 68.0 °F
N
7.0
Wind Variable Wind from ESE
Gusts 11.0 mph

Today
High -- | Low -- °F
--% Chance of Precip.
Yesterday
High -- | Low -- °F
Precip. -- in
6:25 AM 7:21 PM
Waning Gibbous, 91% visible
Pressure 30.04 in
Visibility 10.0 miles
Clouds Clear
Dew Point Not available.
Humidity Not available.
Rainfall in
Snow Depth Not available.
UV 0 out of 12
Pollen 8.00 out of 12
Air Quality Not available.
Flu Activity Not available.
METAR KTSP 010415Z AUTO 29005KT 10SM CLR 18/06 A3004 RMK AO2
Pressure 30.04 in
Visibility 10.0 miles
Clouds Clear
Dew Point Not available.
Humidity Not available.
Rainfall in
Snow Depth Not available.
UV 0 out of 12
Pollen 8.00 out of 12
Air Quality Not available.
Flu Activity Not available.
METAR KTSP 010415Z AUTO 29005KT 10SM CLR 18/06 A3004 RMK AO2

10-Day Weather Forecast

×

Almanac

Astronomy

Aug. 31, 2015 Rise Set
Actual Time
Civil Twilight
Nautical Twilight
Astronomical Twilight
Moon
Length of Visible Light
Length of Day
Tomorrow will be .
, % of the Moon is Illuminated

Today's Extremes

State Highs State Lows

Community

WunderPhotos

Upload Photos

1,851,479 photos uploaded!

WunderBlogs® & News

Nearby

Air Quality

  Air Quality AQ Index Pollutant
Not available.

Snow Depth

Station Depth Elevation

Earthquake Activity

City Distance Mag. Time & Date
Minimum magnitude displayed is 2.5.

Coastal Water Temperatures

Place Temperature

Stations

Nearby Weather Stations

Station Location Temp. Windchill Dew Point Humidity Wind Precip. Elev Updated Type